Aarschot, Belgium
Current Conditions -  °F | °C
As of 1:25 AM on Monday 22 Dec 2014 (Local Time) from EBDT Reporting Station
Overcast Overcast  
Wind Chill:   Ceiling: 1600
Heat Index:   Visibility: 6mi
Dew Point:   Wind: 15mph
Humidity: 82%   Direction: 230°SW
Pressure: 30.21"   Gusts: NA
Location:  50.99°N, 4.84°E
Report Text: EBDT 220025Z AUTO 23013KT 9999 BKN016/// OVC019/// 09/06 Q1023 WHT
Loading
Personal Weather Stations






























Interactive Weather Map New forecast layout! Learn more

10-Day Weather Forecast

Advertisements
Track Severe Weather on mobile